Time;durP1;ratioP1;P1;durP2;ratioP2;P2;SDS_P1;SDS_P2;PMS_P1;PMS_P2;Temp;Humidity;BMP_temperature;BMP_pressure;BME280_temperature;BME280_humidity;BME280_pressure;Samples;Min_cycle;Max_cycle;Signal;HPM_P1;HPM_P2
2021/06/11 00:00:55;;;;;;;;;;;17.00;99.90;;;15.78;79.33;101606.13;3519360;40;102306;-40
2021/06/11 00:03:23;;;;;;;;;;;17.00;99.90;;;15.75;78.89;101610.16;3519350;40;103019;-41
2021/06/11 00:05:50;;;;;;;;;;;17.00;99.90;;;15.73;79.12;101614.22;3519470;40;102200;-43
2021/06/11 00:08:18;;;;;;;;;;;17.00;99.90;;;15.71;79.68;101614.44;3520307;40;102408;-40
2021/06/11 00:10:49;;;;;;;;;;;17.00;99.90;;;15.70;79.65;101611.94;3521419;40;102191;-42
2021/06/11 00:13:16;;;;;;;;;;;16.90;99.90;;;15.65;79.90;101616.22;3521064;40;102221;-40
2021/06/11 00:15:44;;;;;;;;;;;16.90;99.90;;;15.61;79.94;101614.94;3521132;40;102546;-40
2021/06/11 00:18:12;;;;;;;;;;;16.90;99.90;;;15.55;79.69;101610.38;3520583;40;102225;-43
2021/06/11 00:20:40;;;;;;;;;;;16.80;99.90;;;15.51;79.65;101609.16;3520766;40;102213;-40
2021/06/11 00:23:07;;;;;;;;;;;16.80;99.90;;;15.47;80.14;101607.91;3521141;40;102809;-43
2021/06/11 00:25:35;;;;;;;;;;;16.70;99.90;;;15.43;80.35;101603.94;3520993;40;102251;-41
2021/06/11 00:28:02;;;;;;;;;;;16.70;99.90;;;15.38;80.09;101608.22;3521283;40;102133;-41
2021/06/11 00:30:30;;;;;;;;;;;16.70;99.90;;;15.37;80.34;101611.19;3520841;40;102382;-40
2021/06/11 00:32:59;;;;;;;;;;;16.70;99.90;;;15.31;80.53;101601.91;3520584;40;102432;-41
2021/06/11 00:35:29;;;;;;;;;;;16.60;99.90;;;15.29;80.95;101606.81;3520902;40;102272;-40
2021/06/11 00:37:57;;;;;;;;;;;16.60;99.90;;;15.25;80.77;101611.06;3520813;40;103068;-40
2021/06/11 00:40:24;;;;;;;;;;;16.50;99.90;;;15.21;80.77;101612.59;3520895;40;103040;-41
2021/06/11 00:42:52;;;;;;;;;;;16.50;99.90;;;15.20;81.07;101619.16;3520918;40;102510;-40
2021/06/11 00:45:20;;;;;;;;;;;16.50;99.90;;;15.16;81.17;101615.19;3520729;40;102229;-40
2021/06/11 00:47:47;;;;;;;;;;;16.40;99.90;;;15.13;81.15;101615.63;3520968;40;103162;-40
2021/06/11 00:50:24;;;;;;;;;;;16.40;99.90;;;15.08;81.04;101611.63;3520419;40;102342;-41
2021/06/11 00:52:53;;;;;;;;;;;16.40;99.90;;;15.06;81.00;101615.69;3520796;40;102077;-40
2021/06/11 00:55:21;;;;;;;;;;;16.30;99.90;;;15.01;81.33;101610.84;3520575;40;102295;-40
2021/06/11 00:57:49;;;;;;;;;;;16.30;99.90;;;14.98;81.24;101614.03;3520962;40;102877;-40
2021/06/11 01:00:18;;;;;;;;;;;16.30;99.90;;;14.94;81.07;101607.31;3520564;40;102151;-40
2021/06/11 01:02:46;;;;;;;;;;;16.20;99.90;;;14.88;81.38;101602.72;3520684;40;102340;-41
2021/06/11 01:05:13;;;;;;;;;;;16.20;99.90;;;14.81;81.51;101606.31;3520676;40;102324;-42
2021/06/11 01:07:44;;;;;;;;;;;16.10;99.90;;;14.80;81.84;101610.13;3520996;40;102374;-40
2021/06/11 01:10:12;;;;;;;;;;;16.10;99.90;;;14.72;82.20;101599.41;3520690;40;103273;-40
2021/06/11 01:12:40;;;;;;;;;;;16.00;99.90;;;14.67;82.10;101605.53;3520158;40;102083;-40
2021/06/11 01:15:09;;;;;;;;;;;16.00;99.90;;;14.65;82.18;101604.09;3520910;40;103268;-42
2021/06/11 01:17:37;;;;;;;;;;;16.00;99.90;;;14.63;82.26;101608.97;3520618;40;102260;-41
2021/06/11 01:20:10;;;;;;;;;;;15.90;99.90;;;14.59;82.24;101600.31;3519771;40;102711;-40
2021/06/11 01:23:08;;;;;;;;;;;15.90;99.90;;;14.58;82.34;101609.63;3520626;40;102665;-41
2021/06/11 01:25:58;;;;;;;;;;;15.90;99.90;;;14.51;82.27;101604.16;3521072;40;103173;-44
2021/06/11 01:28:27;;;;;;;;;;;15.80;99.90;;;14.51;82.82;101608.81;3520606;40;102475;-40
2021/06/11 01:30:56;;;;;;;;;;;15.80;99.90;;;14.48;82.75;101601.84;3520302;40;102148;-41
2021/06/11 01:33:27;;;;;;;;;;;15.80;99.90;;;14.44;82.58;101603.38;3520286;40;102810;-40
2021/06/11 01:36:02;;;;;;;;;;;15.70;99.90;;;14.40;82.55;101596.63;3520517;40;102313;-40
2021/06/11 01:38:37;;;;;;;;;;;15.70;99.90;;;14.39;82.65;101600.44;3520842;40;102303;-40
2021/06/11 01:41:07;;;;;;;;;;;15.70;99.90;;;14.35;82.92;101593.72;3520186;40;103294;-40
2021/06/11 01:43:36;;;;;;;;;;;15.70;99.90;;;14.31;83.02;101596.03;3519973;40;103456;-40
2021/06/11 01:46:04;;;;;;;;;;;15.60;99.90;;;14.30;83.40;101599.84;3520360;40;102196;-41
2021/06/11 01:48:33;;;;;;;;;;;15.60;99.90;;;14.27;83.24;101593.94;3520571;40;102180;-40
2021/06/11 01:51:00;;;;;;;;;;;15.60;99.90;;;14.23;83.38;101599.88;3520280;40;102698;-41
2021/06/11 01:53:29;;;;;;;;;;;15.50;99.90;;;14.18;83.28;101587.84;3519949;40;102912;-41
2021/06/11 01:55:56;;;;;;;;;;;15.60;99.90;;;14.19;83.31;101595.88;3520305;40;102290;-40
2021/06/11 01:58:24;;;;;;;;;;;15.50;99.90;;;14.15;83.07;101597.38;3520291;40;102150;-43
2021/06/11 02:00:53;;;;;;;;;;;15.50;99.90;;;14.13;83.29;101591.28;3520662;40;102335;-41
2021/06/11 02:03:23;;;;;;;;;;;15.40;99.90;;;14.09;83.25;101590.84;3519808;40;102433;-40
2021/06/11 02:05:53;;;;;;;;;;;15.40;99.90;;;14.05;83.28;101586.00;3520593;40;102978;-42
2021/06/11 02:08:21;;;;;;;;;;;15.40;99.90;;;14.06;84.18;101598.69;3520395;40;102590;-40
2021/06/11 02:10:49;;;;;;;;;;;15.40;99.90;;;14.02;84.13;101586.44;3520078;40;103069;-43
2021/06/11 02:13:17;;;;;;;;;;;15.30;99.90;;;13.99;84.02;101590.47;3520627;40;103088;-40
2021/06/11 02:15:45;;;;;;;;;;;15.30;99.90;;;13.95;84.39;101594.72;3519949;40;102260;-40
2021/06/11 02:18:14;;;;;;;;;;;15.30;99.90;;;13.89;84.37;101590.06;3519972;40;102425;-40
2021/06/11 02:20:42;;;;;;;;;;;15.20;99.90;;;13.88;84.48;101585.66;3520307;40;102282;-41
2021/06/11 02:23:09;;;;;;;;;;;15.20;99.90;;;13.86;84.32;101588.63;3519698;40;102545;-43
2021/06/11 02:25:37;;;;;;;;;;;15.10;99.90;;;13.82;84.38;101590.13;3520791;40;103097;-40
2021/06/11 02:28:06;;;;;;;;;;;15.10;99.90;;;13.80;84.54;101589.50;3520054;40;102832;-41
2021/06/11 02:30:33;;;;;;;;;;;15.10;99.90;;;13.73;85.03;101584.03;3644441;22;102958;-41
2021/06/11 02:33:01;;;;;;;;;;;15.10;99.90;;;13.73;85.29;101584.03;3514560;40;102615;-42
2021/06/11 02:35:28;;;;;;;;;;;15.10;99.90;;;13.71;85.39;101585.28;3520245;40;103214;-41
2021/06/11 02:37:55;;;;;;;;;;;15.00;99.90;;;13.68;85.35;101582.97;3520196;40;102276;-42
2021/06/11 02:40:23;;;;;;;;;;;15.00;99.90;;;13.63;85.35;101586.34;3512633;40;103200;-41
2021/06/11 02:42:57;;;;;;;;;;;14.90;99.90;;;13.61;85.54;101594.81;3510069;40;102227;-41
2021/06/11 02:45:28;;;;;;;;;;;14.90;99.90;;;13.57;85.55;101581.72;3510440;40;103201;-41
2021/06/11 02:48:13;;;;;;;;;;;14.90;99.90;;;13.57;85.42;101589.97;3510655;40;102388;-41
2021/06/11 02:50:46;;;;;;;;;;;14.90;99.90;;;13.55;85.28;101589.34;3510199;40;103069;-41
2021/06/11 02:53:25;;;;;;;;;;;14.90;99.90;;;13.51;85.39;101599.88;3510152;40;102366;-42
2021/06/11 02:56:01;;;;;;;;;;;14.80;99.90;;;13.44;85.35;101585.34;3510296;40;102152;-41
2021/06/11 02:58:50;;;;;;;;;;;14.80;99.90;;;13.42;85.57;101590.16;3510751;40;102933;-41
2021/06/11 03:01:19;;;;;;;;;;;14.80;99.90;;;13.44;85.78;101590.81;3510502;40;103234;-41
2021/06/11 03:03:50;;;;;;;;;;;14.80;99.90;;;13.43;86.02;101592.72;3509199;40;102176;-42
2021/06/11 03:06:21;;;;;;;;;;;14.80;99.90;;;13.44;85.79;101593.56;3509932;40;104012;-42
2021/06/11 03:08:50;;;;;;;;;;;14.80;99.90;;;13.42;85.81;101596.50;3509952;40;102357;-42
2021/06/11 03:11:30;;;;;;;;;;;14.70;99.90;;;13.40;85.90;101593.13;3510190;40;102271;-42
2021/06/11 03:13:58;;;;;;;;;;;14.70;99.90;;;13.36;85.86;101592.72;3509835;40;102403;-41
2021/06/11 03:16:27;;;;;;;;;;;14.70;99.90;;;13.34;86.28;101588.47;3510681;40;103202;-42
2021/06/11 03:18:59;;;;;;;;;;;14.70;99.90;;;13.33;86.29;101587.66;3510080;40;102782;-41
2021/06/11 03:21:33;;;;;;;;;;;14.70;99.90;;;13.34;86.39;101591.22;3510360;40;103132;-42
2021/06/11 03:24:06;;;;;;;;;;;14.60;99.90;;;13.36;86.82;101591.84;3510308;40;102198;-41
2021/06/11 03:27:05;;;;;;;;;;;14.70;99.90;;;13.36;86.55;101597.31;3510235;40;103373;-41
2021/06/11 03:29:35;;;;;;;;;;;14.70;99.90;;;13.35;86.48;101596.50;3510121;40;103055;-41
2021/06/11 03:32:11;;;;;;;;;;;14.70;99.90;;;13.35;86.32;101599.25;3509734;40;102971;-40
2021/06/11 03:34:42;;;;;;;;;;;14.60;99.90;;;13.34;86.43;101597.56;3509802;40;102188;-42
2021/06/11 03:37:18;;;;;;;;;;;14.60;99.90;;;13.34;86.61;101599.44;3509589;40;103168;-41
2021/06/11 03:39:56;;;;;;;;;;;14.60;99.90;;;13.32;86.59;101594.19;3509647;40;102453;-42
2021/06/11 03:42:24;;;;;;;;;;;14.60;99.90;;;13.29;86.95;101600.09;3509967;40;102412;-41
2021/06/11 03:44:53;;;;;;;;;;;14.60;99.90;;;13.33;86.89;101604.09;3511224;40;102272;-42
2021/06/11 03:47:25;;;;;;;;;;;14.70;99.90;;;13.36;86.70;101597.31;3511237;40;103283;-42
2021/06/11 03:49:56;;;;;;;;;;;14.60;99.90;;;13.34;86.69;101588.47;3511032;40;102797;-41
2021/06/11 03:52:29;;;;;;;;;;;14.60;99.90;;;13.38;86.72;101600.69;3511411;40;102315;-41
2021/06/11 03:55:09;;;;;;;;;;;14.70;99.90;;;13.42;87.19;101603.88;3502147;40;102450;-41
2021/06/11 03:57:39;;;;;;;;;;;14.70;99.90;;;13.43;87.14;101603.69;3511172;40;102279;-41
2021/06/11 04:00:08;;;;;;;;;;;14.70;99.90;;;13.47;87.42;101604.09;3510976;40;102445;-41
2021/06/11 04:02:36;;;;;;;;;;;14.70;99.90;;;13.51;87.39;101606.22;3511018;40;102383;-41
2021/06/11 04:05:04;;;;;;;;;;;14.80;99.90;;;13.55;87.54;101609.38;3511323;40;102265;-42
2021/06/11 04:07:40;;;;;;;;;;;14.80;99.90;;;13.61;87.21;101610.41;3511167;40;102476;-42
2021/06/11 04:10:18;;;;;;;;;;;14.90;99.90;;;13.63;87.50;101603.66;3511405;40;102280;-42
2021/06/11 04:12:56;;;;;;;;;;;14.90;99.90;;;13.74;87.36;101606.78;3511003;40;103288;-41
2021/06/11 04:15:29;;;;;;;;;;;15.00;99.90;;;13.80;87.36;101608.69;3510920;40;102292;-41
2021/06/11 04:18:08;;;;;;;;;;;15.00;99.90;;;13.87;87.37;101603.16;3511195;40;103324;-41
2021/06/11 04:20:38;;;;;;;;;;;15.10;99.90;;;13.93;87.69;101614.13;3511009;40;102391;-41
2021/06/11 04:23:07;;;;;;;;;;;15.10;99.90;;;14.01;87.76;101610.31;3510841;40;103924;-42
2021/06/11 04:25:36;;;;;;;;;;;15.20;99.90;;;14.08;87.94;101611.13;3511584;40;102492;-41
2021/06/11 04:28:06;;;;;;;;;;;15.30;99.90;;;14.15;87.97;101604.75;3511099;40;102235;-42
2021/06/11 04:30:33;;;;;;;;;;;15.30;99.90;;;14.23;88.22;101605.34;3511143;40;102856;-41
2021/06/11 04:33:01;;;;;;;;;;;15.40;99.90;;;14.33;88.53;101601.31;3510677;40;102115;-41
2021/06/11 04:35:36;;;;;;;;;;;15.50;99.90;;;14.41;88.59;101601.06;3511171;40;102401;-41
2021/06/11 04:38:04;;;;;;;;;;;15.60;99.90;;;14.49;88.72;101589.81;3511434;40;103251;-41
2021/06/11 04:40:31;;;;;;;;;;;15.60;99.90;;;14.67;88.52;101594.56;3511179;40;102474;-41
2021/06/11 04:42:59;;;;;;;;;;;15.80;99.90;;;14.84;88.45;101590.47;3510935;40;102272;-41
2021/06/11 04:45:26;;;;;;;;;;;15.90;99.90;;;15.02;88.25;101589.72;3511172;40;102411;-41
2021/06/11 04:47:55;;;;;;;;;;;16.10;99.90;;;15.22;88.48;101584.88;3511349;40;102785;-41
2021/06/11 04:50:22;;;;;;;;;;;16.30;99.90;;;15.45;88.36;101588.06;3511085;40;102426;-42
2021/06/11 04:52:50;;;;;;;;;;;16.40;99.90;;;15.67;88.14;101583.81;3510811;40;102266;-42
2021/06/11 04:55:18;;;;;;;;;;;16.60;99.90;;;15.93;88.01;101581.00;3510892;40;102402;-41
2021/06/11 04:57:45;;;;;;;;;;;16.80;99.90;;;16.15;87.45;101589.59;3510909;40;102382;-42
2021/06/11 05:00:14;;;;;;;;;;;17.10;99.90;;;16.36;86.67;101584.69;3510629;40;102468;-41
2021/06/11 05:02:41;;;;;;;;;;;17.30;99.90;;;16.54;85.98;101575.53;3510760;40;102202;-41
2021/06/11 05:05:09;;;;;;;;;;;17.40;99.90;;;16.74;84.89;101575.25;3511060;40;102437;-41
2021/06/11 05:07:37;;;;;;;;;;;17.60;99.90;;;16.95;83.95;101578.50;3511550;40;103276;-41
2021/06/11 05:10:05;;;;;;;;;;;17.80;99.90;;;17.15;83.63;101577.38;3510706;40;102316;-41
2021/06/11 05:12:35;;;;;;;;;;;18.00;99.90;;;17.30;83.23;101561.19;3511092;40;103118;-42
2021/06/11 05:15:04;;;;;;;;;;;18.20;99.90;;;17.54;82.14;101580.50;3510542;40;102250;-42
2021/06/11 05:17:31;;;;;;;;;;;18.40;99.90;;;17.72;80.75;101567.63;3510503;40;103359;-42
2021/06/11 05:19:59;;;;;;;;;;;18.50;99.90;;;17.90;80.16;101569.38;3510420;40;102188;-41
2021/06/11 05:22:26;;;;;;;;;;;18.70;99.90;;;18.04;78.67;101570.81;3510665;40;102220;-41
2021/06/11 05:24:54;;;;;;;;;;;18.80;99.90;;;18.21;77.91;101570.88;3510913;40;102356;-42
2021/06/11 05:27:21;;;;;;;;;;;19.00;99.90;;;18.35;77.31;101570.59;3510466;40;103265;-42
2021/06/11 05:29:48;;;;;;;;;;;19.20;99.90;;;18.53;77.73;101580.59;3510616;40;104559;-42
2021/06/11 05:32:16;;;;;;;;;;;19.30;99.90;;;18.66;76.51;101582.22;3510444;40;102305;-42
2021/06/11 05:34:43;;;;;;;;;;;19.40;99.90;;;18.81;77.24;101578.88;3510305;40;102266;-42
2021/06/11 05:37:11;;;;;;;;;;;19.60;99.90;;;18.96;75.93;101583.84;3510417;40;103717;-42
2021/06/11 05:39:38;;;;;;;;;;;19.70;99.90;;;19.09;75.00;101589.06;3510596;40;102377;-42
2021/06/11 05:42:06;;;;;;;;;;;19.80;99.90;;;19.27;73.37;101589.91;3510678;40;103329;-41
2021/06/11 05:44:34;;;;;;;;;;;20.00;99.90;;;19.44;73.51;101591.81;3510585;40;102270;-42
2021/06/11 05:47:02;;;;;;;;;;;20.20;99.90;;;19.54;72.65;101592.81;3510503;40;103665;-42
2021/06/11 05:49:29;;;;;;;;;;;20.40;99.90;;;19.69;73.88;101585.78;3510866;40;103101;-42
2021/06/11 05:51:56;;;;;;;;;;;20.50;99.90;;;19.87;72.95;101594.91;3510096;40;102463;-42
2021/06/11 05:54:24;;;;;;;;;;;20.60;99.90;;;20.02;72.50;101591.53;3510188;40;102331;-42
2021/06/11 05:56:51;;;;;;;;;;;20.70;99.90;;;20.19;71.08;101586.75;3510500;40;104105;-42
2021/06/11 05:59:18;;;;;;;;;;;20.90;99.90;;;20.33;70.81;101589.09;3510448;40;102168;-42
2021/06/11 06:01:46;;;;;;;;;;;21.00;99.90;;;20.47;69.01;101589.53;3501515;40;102485;-42
2021/06/11 06:04:13;;;;;;;;;;;21.20;99.90;;;20.57;69.38;101588.81;3510208;40;102277;-42
2021/06/11 06:06:41;;;;;;;;;;;21.30;99.90;;;20.68;68.76;101590.56;3509837;40;102257;-42
2021/06/11 06:09:08;;;;;;;;;;;21.40;99.90;;;20.77;66.94;101594.56;3510574;40;102207;-42
2021/06/11 06:11:36;;;;;;;;;;;21.50;99.90;;;20.87;67.56;101591.06;3510616;40;102416;-42
2021/06/11 06:14:04;;;;;;;;;;;21.60;99.90;;;21.01;67.86;101591.47;3510119;40;102565;-42
2021/06/11 06:16:32;;;;;;;;;;;21.70;99.90;;;21.18;67.61;101590.47;3510390;40;103270;-43
2021/06/11 06:18:59;;;;;;;;;;;21.90;99.90;;;21.25;67.20;101591.91;3510148;40;102146;-42
2021/06/11 06:21:30;;;;;;;;;;;22.00;99.90;;;21.31;65.28;101595.56;3510254;40;103321;-42
2021/06/11 06:24:00;;;;;;;;;;;22.00;99.90;;;21.45;65.50;101604.28;3510532;40;103027;-42
2021/06/11 06:26:28;;;;;;;;;;;22.10;99.90;;;21.54;65.87;101605.44;3510247;40;102345;-42
2021/06/11 06:28:55;;;;;;;;;;;22.20;99.90;;;21.70;66.49;101606.38;3509959;40;102546;-41
2021/06/11 06:31:23;;;;;;;;;;;22.40;99.90;;;21.87;64.59;101608.16;3510452;40;102361;-41
2021/06/11 06:33:50;;;;;;;;;;;22.50;99.90;;;21.98;65.00;101626.53;3510414;40;102353;-42
2021/06/11 06:36:18;;;;;;;;;;;22.60;99.90;;;22.17;64.99;101617.72;3510449;40;102491;-42
2021/06/11 06:38:46;;;;;;;;;;;22.80;99.90;;;22.20;62.60;101621.91;3510191;40;102300;-42
2021/06/11 06:41:17;;;;;;;;;;;22.90;99.90;;;22.30;62.30;101621.13;3510268;40;102172;-42
2021/06/11 06:43:44;;;;;;;;;;;23.00;99.90;;;22.35;63.91;101623.91;3510403;40;102454;-42
2021/06/11 06:46:15;;;;;;;;;;;23.00;99.90;;;22.41;65.27;101617.25;3510132;40;102484;-42
2021/06/11 06:48:43;;;;;;;;;;;23.10;99.90;;;22.42;63.38;101621.69;3510611;40;102955;-43
2021/06/11 06:51:11;;;;;;;;;;;23.10;99.90;;;22.60;62.16;101622.34;3510468;40;103062;-42
2021/06/11 06:53:38;;;;;;;;;;;23.20;99.90;;;22.69;61.93;101623.44;3510186;40;102630;-43
2021/06/11 06:56:05;;;;;;;;;;;23.30;99.90;;;22.81;61.75;101625.97;3510373;40;103990;-42
2021/06/11 06:58:33;;;;;;;;;;;23.40;99.90;;;23.02;61.70;101620.44;3509926;40;102198;-42
2021/06/11 07:01:00;;;;;;;;;;;23.60;99.90;;;23.12;60.61;101621.28;3510071;40;102335;-43
2021/06/11 07:03:31;;;;;;;;;;;23.70;99.90;;;23.17;59.29;101622.38;3510005;40;102441;-42
2021/06/11 07:05:59;;;;;;;;;;;23.70;99.90;;;23.21;61.61;101620.69;3509730;40;102276;-42
2021/06/11 07:08:30;;;;;;;;;;;23.90;99.90;;;23.17;60.19;101620.41;3510146;40;103048;-42
2021/06/11 07:10:58;;;;;;;;;;;23.80;99.90;;;23.36;61.08;101617.09;3509866;40;102681;-43
2021/06/11 07:13:27;;;;;;;;;;;24.00;99.90;;;23.27;60.10;101616.81;3510282;40;102441;-42
2021/06/11 07:15:55;;;;;;;;;;;24.00;99.90;;;23.22;58.69;101614.88;3510095;40;104251;-42
2021/06/11 07:18:22;;;;;;;;;;;23.90;99.90;;;23.41;58.42;101612.38;3510653;40;102412;-42
2021/06/11 07:20:50;;;;;;;;;;;24.10;99.90;;;23.56;60.30;101611.50;3510943;40;102283;-43
2021/06/11 07:23:17;;;;;;;;;;;24.20;99.90;;;23.46;55.45;101605.13;3511319;40;102729;-42
2021/06/11 07:25:45;;;;;;;;;;;24.20;99.90;;;23.41;59.05;101612.38;3511222;40;102280;-42
2021/06/11 07:28:12;;;;;;;;;;;24.10;99.90;;;23.58;58.12;101608.41;3511126;40;102212;-42
2021/06/11 07:30:40;;;;;;;;;;;24.20;99.90;;;23.54;58.01;101612.88;3511270;40;102267;-42
2021/06/11 07:33:07;;;;;;;;;;;24.20;99.90;;;23.64;58.02;101617.59;3511110;40;102429;-42
2021/06/11 07:35:36;;;;;;;;;;;24.30;99.90;;;23.66;56.84;101613.44;3510920;40;102286;-41
2021/06/11 07:38:05;;;;;;;;;;;;;;;23.88;56.39;101609.47;3511140;40;102224;-42
2021/06/11 07:40:41;;;;;;;;;;;24.30;99.90;;;24.04;55.48;101623.34;3510955;40;102379;-43
2021/06/11 07:43:08;;;;;;;;;;;;;;;24.25;57.12;101619.38;3510866;40;102403;-42
2021/06/11 07:45:36;;;;;;;;;;;24.50;99.90;;;24.23;55.19;101623.53;3510822;40;102319;-42
2021/06/11 07:48:04;;;;;;;;;;;24.80;99.90;;;24.24;55.29;101620.47;3510697;40;102309;-43
2021/06/11 07:50:31;;;;;;;;;;;24.80;99.90;;;24.16;56.13;101621.09;3511492;40;102315;-44
2021/06/11 07:52:59;;;;;;;;;;;24.80;99.90;;;24.32;54.33;101627.41;3502057;40;102724;-42
2021/06/11 07:55:26;;;;;;;;;;;24.90;99.90;;;24.41;54.23;101633.22;3510859;40;102194;-42
2021/06/11 07:57:54;;;;;;;;;;;;;;;24.55;55.88;101631.47;3510876;40;102448;-42
2021/06/11 08:00:22;;;;;;;;;;;25.00;99.90;;;24.67;55.85;101630.28;3511217;40;102561;-42
2021/06/11 08:02:57;;;;;;;;;;;;;;;24.87;54.79;101640.50;3511506;40;102153;-42
2021/06/11 08:05:26;;;;;;;;;;;;;;;25.00;52.60;101639.00;3510851;40;102485;-42
2021/06/11 08:07:54;;;;;;;;;;;;;;;25.04;51.22;101640.09;3510964;40;102251;-42
2021/06/11 08:10:22;;;;;;;;;;;;;;;25.19;52.54;101641.06;3511191;40;102178;-42
2021/06/11 08:12:50;;;;;;;;;;;;;;;25.16;52.69;101644.44;3510905;40;102745;-43
2021/06/11 08:15:19;;;;;;;;;;;;;;;25.25;52.62;101645.50;3510898;40;102321;-43
2021/06/11 08:17:47;;;;;;;;;;;;;;;25.31;52.05;101651.84;3510895;40;102458;-42
2021/06/11 08:20:15;;;;;;;;;;;;;;;25.28;51.51;101644.91;3511312;40;103080;-42
2021/06/11 08:22:43;;;;;;;;;;;;;;;25.25;54.31;101651.91;3511073;40;102634;-41
2021/06/11 08:25:11;;;;;;;;;;;;;;;25.45;51.35;101647.25;3510932;40;103202;-42
2021/06/11 08:27:39;;;;;;;;;;;;;;;25.61;52.19;101652.75;3511171;40;102392;-39
2021/06/11 08:30:09;;;;;;;;;;;;;;;25.77;50.90;101650.63;3645793;22;104432;-41
2021/06/11 08:32:52;;;;;;;;;;;;;;;25.97;51.55;101655.94;3526186;39;103053;-41
2021/06/11 08:35:20;;;;;;;;;;;;;;;26.10;50.37;101653.56;3531575;39;102350;-41
2021/06/11 08:37:48;;;;;;;;;;;;;;;26.24;49.88;101657.31;3531405;39;102411;-42
2021/06/11 08:40:16;;;;;;;;;;;;;;;26.25;48.51;101658.19;3526033;39;102174;-41
2021/06/11 08:42:45;;;;;;;;;;;;;;;25.82;49.50;101656.97;3520910;40;102282;-41
2021/06/11 08:45:13;;;;;;;;;;;;;;;25.82;51.45;101651.38;3521027;40;102602;-41
2021/06/11 08:47:46;;;;;;;;;;;;;;;25.93;50.46;101654.88;3521033;40;102293;-40
2021/06/11 08:50:16;;;;;;;;;;;;;;;25.99;50.74;101652.88;3521459;40;102386;-40
2021/06/11 08:52:44;;;;;;;;;;;;;;;25.93;49.13;101654.88;3521125;40;102275;-41
2021/06/11 08:55:12;;;;;;;;;;;;;;;25.97;50.44;101661.53;3521240;40;102383;-41
2021/06/11 08:57:40;;;;;;;;;;;;;;;26.06;49.79;101663.69;3521087;40;102842;-40
2021/06/11 09:00:08;;;;;;;;;;;;;;;25.97;51.31;101660.72;3520934;40;102283;-41
2021/06/11 09:03:10;;;;;;;;;;;;;;;26.10;49.96;101653.56;3521470;40;102265;-40
2021/06/11 09:05:42;;;;;;;;;;;;;;;26.31;48.27;101654.16;3519636;40;102496;-40
2021/06/11 09:08:14;;;;;;;;;;;;;;;26.12;49.99;101656.91;3521220;40;102224;-41
2021/06/11 09:10:45;;;;;;;;;;;;;;;26.26;48.01;101657.88;3520841;40;102228;-41
2021/06/11 09:13:26;;;;;;;;;;;;;;;26.59;49.10;101654.34;3520489;40;102281;-41
2021/06/11 09:16:17;;;;;;;;;;;;;;;26.89;47.20;101659.81;3521378;40;102813;-41
2021/06/11 09:18:50;;;;;;;;;;;;;;;27.23;48.83;101661.50;3516954;40;102471;-41
2021/06/11 09:21:28;;;;;;;;;;;;;;;27.38;47.64;101655.66;3521369;40;102198;-41
2021/06/11 09:24:24;;;;;;;;;;;;;;;27.55;47.34;101659.84;3521457;40;102384;-40
2021/06/11 09:26:59;;;;;;;;;;;;;;;26.92;48.38;101648.03;3520941;40;104071;-41
2021/06/11 09:29:37;;;;;;;;;;;;;;;26.84;47.55;101655.97;3520698;40;102480;-40
2021/06/11 09:32:10;;;;;;;;;;;;;;;27.19;48.04;101657.66;3520729;40;103716;-37
2021/06/11 09:34:37;;;;;;;;;;;;;;;27.01;47.75;101657.38;3521083;40;102288;-41
2021/06/11 09:37:05;;;;;;;;;;;;;;;26.77;47.16;101657.47;3520904;40;102320;-41
2021/06/11 09:39:43;;;;;;;;;;;;;;;26.82;48.59;101657.38;3520508;40;102485;-43
2021/06/11 09:42:12;;;;;;;;;;;;;;;26.68;45.93;101652.56;3520750;40;103101;-42
2021/06/11 09:44:41;;;;;;;;;;;;;;;26.50;47.86;101651.38;3521084;40;102403;-41
2021/06/11 09:47:09;;;;;;;;;;;;;;;26.34;49.19;101653.56;3520680;40;102892;-41
2021/06/11 09:49:43;;;;;;;;;;;;;;;26.30;48.24;101641.31;3520437;40;102500;-40
2021/06/11 09:52:11;;;;;;;;;;;;;;;26.07;50.51;101648.59;3521240;40;102370;-40
2021/06/11 09:54:39;;;;;;;;;;;;;;;26.27;48.57;101651.16;3520763;40;102144;-40
2021/06/11 09:57:20;;;;;;;;;;;;;;;26.49;49.34;101644.13;3520643;40;103212;-40
2021/06/11 09:59:48;;;;;;;;;;;;;;;26.65;50.30;101641.13;3520805;40;102495;-40
2021/06/11 10:02:17;;;;;;;;;;;;;;;27.07;49.60;101646.94;3520546;40;103965;-40
2021/06/11 10:04:45;;;;;;;;;;;;;;;27.16;50.00;101635.88;3521282;40;102403;-41
2021/06/11 10:07:15;;;;;;;;;;;;;;;27.38;49.24;101636.03;3521273;40;103107;-40
2021/06/11 10:09:43;;;;;;;;;;;;;;;27.62;46.35;101649.09;3520737;40;102236;-41
2021/06/11 10:12:11;;;;;;;;;;;;;;;27.52;44.26;101652.91;3520876;40;104053;-42
2021/06/11 10:14:39;;;;;;;;;;;;;;;27.33;44.83;101650.16;3520713;40;102196;-41
2021/06/11 10:17:07;;;;;;;;;;;;;;;27.39;45.84;101645.25;3520860;40;102290;-41
2021/06/11 10:19:37;;;;;;;;;;;;;;;27.36;47.29;101643.06;3520475;40;102354;-40
2021/06/11 10:22:06;;;;;;;;;;;;;;;27.46;46.82;101637.31;3520166;40;103126;-39
2021/06/11 10:24:34;;;;;;;;;;;;;;;27.67;46.18;101639.72;3520733;40;102402;-40
2021/06/11 10:27:03;;;;;;;;;;;;;;;27.65;44.17;101631.66;3520501;40;102398;-40
2021/06/11 10:29:32;;;;;;;;;;;;;;;27.48;45.59;101635.03;3520883;40;102470;-40
2021/06/11 10:32:01;;;;;;;;;;;;;;;27.49;45.69;101630.22;3520451;40;102436;-39
2021/06/11 10:34:47;;;;;;;;;;;;;;;27.73;45.08;101637.66;3520806;40;102285;-41
2021/06/11 10:37:34;;;;;;;;;;;;;;;27.93;45.60;101628.84;3520587;40;103067;-40
2021/06/11 10:40:13;;;;;;;;;;;;;;;28.40;46.69;101631.50;3520719;40;102789;-40
2021/06/11 10:42:42;;;;;;;;;;;;;;;28.28;45.38;101628.44;3520245;40;102467;-40
2021/06/11 10:45:14;;;;;;;;;;;;;;;28.60;44.29;101620.97;3520738;40;102744;-40
2021/06/11 10:48:02;;;;;;;;;;;;;;;28.62;42.75;101615.03;3520686;40;102343;-40
2021/06/11 10:50:31;;;;;;;;;;;;;;;28.59;41.06;101621.28;3520697;40;102383;-38
2021/06/11 10:53:08;;;;;;;;;;;;;;;28.31;42.25;101626.97;3520462;40;103266;-41
2021/06/11 10:55:47;;;;;;;;;;;;;;;27.88;45.76;101619.72;3520636;40;102008;-40
2021/06/11 10:58:15;;;;;;;;;;;;;;;27.78;44.65;101610.38;3520792;40;102136;-43
2021/06/11 11:00:42;;;;;;;;;;;;;;;27.74;44.15;101609.34;3520887;40;102294;-41
2021/06/11 11:03:27;;;;;;;;;;;;;;;27.88;44.04;101609.34;3520099;40;103170;-40
2021/06/11 11:05:55;;;;;;;;;;;;;;;28.13;43.67;101609.94;3520365;40;102346;-40
2021/06/11 11:08:42;;;;;;;;;;;;;;;28.59;43.95;101605.28;3519933;40;102309;-40
2021/06/11 11:11:27;;;;;;;;;;;;;;;28.71;43.57;101610.34;3520422;40;102190;-40
2021/06/11 11:13:55;;;;;;;;;;;;;;;28.50;45.51;101608.00;3520109;40;102250;-41
2021/06/11 11:16:24;;;;;;;;;;;;;;;28.36;42.92;101605.25;3520451;40;102938;-40
2021/06/11 11:18:52;;;;;;;;;;;;;;;28.48;45.57;101607.50;3520081;40;103221;-40
2021/06/11 11:21:26;;;;;;;;;;;;;;;28.62;40.67;101598.19;3520249;40;102250;-40
2021/06/11 11:24:19;;;;;;;;;;;;;;;28.69;44.48;101593.78;3520443;40;102286;-40
2021/06/11 11:26:50;;;;;;;;;;;;;;;28.62;43.53;101601.00;3518743;40;102220;-40
2021/06/11 11:29:19;;;;;;;;;;;;;;;28.49;43.18;101603.53;3519757;40;102356;-41
2021/06/11 11:31:48;;;;;;;;;;;;;;;28.55;41.84;101593.84;3519929;40;102820;-41
2021/06/11 11:34:16;;;;;;;;;;;;;;;28.42;44.85;101589.13;3520308;40;104044;-40
2021/06/11 11:36:44;;;;;;;;;;;;;;;28.61;42.12;101593.72;3520250;40;102379;-41
2021/06/11 11:39:12;;;;;;;;;;;;;;;28.87;41.45;101593.13;3519857;40;102417;-40
2021/06/11 11:41:40;;;;;;;;;;;;;;;28.99;43.86;101590.56;3520266;40;102377;-40